createdAt,value
2023-02-02T00:01:59.701Z,102147.93
2023-02-02T00:04:32.254Z,102156.03
2023-02-02T00:07:04.845Z,102159.84
2023-02-02T00:09:34.739Z,102156.20
2023-02-02T00:12:06.292Z,102157.12
2023-02-02T00:14:36.028Z,102159.94
2023-02-02T00:17:05.855Z,102159.15
2023-02-02T00:19:35.639Z,102165.02
2023-02-02T00:22:06.681Z,102155.08
2023-02-02T00:24:36.762Z,102152.14
2023-02-02T00:27:06.804Z,102163.33
2023-02-02T00:29:36.851Z,102158.83
2023-02-02T00:32:08.126Z,102156.55
2023-02-02T00:34:37.921Z,102157.97
2023-02-02T00:37:07.721Z,102163.59
2023-02-02T00:39:37.837Z,102176.94
2023-02-02T00:42:14.161Z,102167.20
2023-02-02T00:45:01.691Z,102169.52
2023-02-02T00:47:31.539Z,102164.52
2023-02-02T00:50:01.636Z,102165.86
2023-02-02T00:52:31.434Z,102170.63
2023-02-02T00:55:01.174Z,102171.89
2023-02-02T00:57:31.731Z,102167.89
2023-02-02T01:00:01.896Z,102161.98
2023-02-02T01:02:32.441Z,102161.45
2023-02-02T01:05:04.370Z,102159.69
2023-02-02T01:07:35.393Z,102164.23
2023-02-02T01:10:08.475Z,102164.85
2023-02-02T01:12:38.588Z,102153.66
2023-02-02T01:15:09.008Z,102153.66
2023-02-02T01:17:38.815Z,102167.58
2023-02-02T01:20:12.001Z,102169.02
2023-02-02T01:22:41.730Z,102167.83
2023-02-02T01:25:11.855Z,102157.74
2023-02-02T01:27:43.179Z,102162.13
2023-02-02T01:30:14.641Z,102156.63
2023-02-02T01:32:44.721Z,102156.72
2023-02-02T01:35:14.552Z,102165.02
2023-02-02T01:37:44.435Z,102157.92
2023-02-02T01:40:15.029Z,102165.17
2023-02-02T01:42:44.818Z,102171.40
2023-02-02T01:45:23.620Z,102178.78
2023-02-02T01:47:59.954Z,102180.55
2023-02-02T01:50:32.800Z,102181.09
2023-02-02T01:53:06.043Z,102191.61
2023-02-02T01:55:40.573Z,102181.41
2023-02-02T01:58:26.059Z,102180.05
2023-02-02T02:00:56.239Z,102190.20
2023-02-02T02:03:28.421Z,102177.90
2023-02-02T02:06:01.897Z,102176.84
2023-02-02T02:08:40.278Z,102177.75
2023-02-02T02:11:10.203Z,102173.45
2023-02-02T02:13:58.520Z,102180.47
2023-02-02T02:16:33.033Z,102182.87
2023-02-02T02:19:26.995Z,102189.59
2023-02-02T02:22:32.404Z,102178.80
2023-02-02T02:25:31.804Z,102179.14
2023-02-02T02:28:21.800Z,102182.78
2023-02-02T02:31:18.642Z,102173.95
2023-02-02T02:34:00.374Z,102173.95
2023-02-02T02:36:50.993Z,102178.63
2023-02-02T02:39:29.987Z,102177.34
2023-02-02T02:42:03.152Z,102173.35
2023-02-02T02:44:34.412Z,102168.02
2023-02-02T02:47:04.795Z,102169.89
2023-02-02T02:49:34.625Z,102174.72
2023-02-02T02:52:05.502Z,102172.42
2023-02-02T02:54:43.180Z,102167.39
2023-02-02T02:57:38.167Z,102171.89
2023-02-02T03:00:39.566Z,102166.56
2023-02-02T03:03:18.051Z,102162.65
2023-02-02T03:06:17.634Z,102154.58
2023-02-02T03:08:56.117Z,102157.66
2023-02-02T03:11:26.031Z,102152.79
2023-02-02T03:13:57.168Z,102148.80
2023-02-02T03:16:26.686Z,102150.08
2023-02-02T03:18:57.802Z,102149.67
2023-02-02T03:21:27.638Z,102152.34
2023-02-02T03:23:57.609Z,102141.16
2023-02-02T03:26:28.087Z,102140.30
2023-02-02T03:28:58.305Z,102133.55
2023-02-02T03:31:29.488Z,102143.04
2023-02-02T03:33:59.278Z,102144.05
2023-02-02T03:36:29.053Z,102149.23
2023-02-02T03:38:58.823Z,102163.58
2023-02-02T03:41:28.599Z,102158.13
2023-02-02T03:43:58.113Z,102167.53
2023-02-02T03:46:27.957Z,102171.50
2023-02-02T03:48:57.700Z,102184.30
2023-02-02T03:51:27.477Z,102186.25
2023-02-02T03:53:57.541Z,102186.27
2023-02-02T03:56:27.351Z,102193.39
2023-02-02T03:58:57.123Z,102195.94
2023-02-02T04:01:30.745Z,102195.94
2023-02-02T04:04:00.636Z,102196.34
2023-02-02T04:06:30.550Z,102200.92
2023-02-02T04:09:00.726Z,102190.88
2023-02-02T04:11:30.739Z,102196.07
2023-02-02T04:14:00.504Z,102193.91
2023-02-02T04:16:32.124Z,102191.78
2023-02-02T04:19:02.145Z,102186.96
2023-02-02T04:21:31.919Z,102183.09
2023-02-02T04:24:01.891Z,102180.16
2023-02-02T04:26:31.883Z,102179.47
2023-02-02T04:29:01.721Z,102187.55
2023-02-02T04:31:32.006Z,102185.48
2023-02-02T04:34:01.967Z,102185.48
2023-02-02T04:36:31.836Z,102180.69
2023-02-02T04:39:01.710Z,102185.27
2023-02-02T04:41:31.604Z,102181.36
2023-02-02T04:44:01.457Z,102168.22
2023-02-02T04:46:32.043Z,102175.66
2023-02-02T04:49:01.790Z,102171.73
2023-02-02T04:51:31.574Z,102178.86
2023-02-02T04:54:01.744Z,102174.98
2023-02-02T04:56:31.600Z,102175.90
2023-02-02T04:59:01.941Z,102174.20
2023-02-02T05:01:31.748Z,102173.11
2023-02-02T05:04:01.820Z,102180.83
2023-02-02T05:06:31.567Z,102180.14
2023-02-02T05:09:01.695Z,102168.61
2023-02-02T05:11:31.752Z,102168.61
2023-02-02T05:14:01.878Z,102176.09
2023-02-02T05:16:31.828Z,102176.09
2023-02-02T05:19:01.607Z,102185.32
2023-02-02T05:21:31.352Z,102186.45
2023-02-02T05:24:02.678Z,102190.69
2023-02-02T05:26:32.784Z,102195.10
2023-02-02T05:29:02.971Z,102204.55
2023-02-02T05:31:33.045Z,102213.22
2023-02-02T05:34:03.455Z,102210.46
2023-02-02T05:36:33.379Z,102206.00
2023-02-02T05:39:03.228Z,102205.22
2023-02-02T05:41:33.035Z,102201.14
2023-02-02T05:44:03.417Z,102201.14
2023-02-02T05:46:33.327Z,102200.78
2023-02-02T05:49:04.714Z,102198.68
2023-02-02T05:51:37.530Z,102202.58
2023-02-02T05:54:09.623Z,102192.55
2023-02-02T05:56:39.655Z,102192.55
2023-02-02T05:59:09.458Z,102197.20
2023-02-02T06:01:39.212Z,102194.74
2023-02-02T06:04:11.393Z,102192.19
2023-02-02T06:06:41.532Z,102204.60
2023-02-02T06:09:11.642Z,102199.18
2023-02-02T06:11:41.536Z,102199.24
2023-02-02T06:14:12.189Z,102209.30
2023-02-02T06:16:42.267Z,102210.89
2023-02-02T06:19:12.144Z,102211.02
2023-02-02T06:21:41.976Z,102205.37
2023-02-02T06:24:11.723Z,102211.40
2023-02-02T06:26:41.892Z,102208.63
2023-02-02T06:29:15.071Z,102212.09
2023-02-02T06:31:44.913Z,102206.03
2023-02-02T06:34:14.870Z,102208.22
2023-02-02T06:36:44.759Z,102214.97
2023-02-02T06:39:14.550Z,102217.97
2023-02-02T06:41:46.036Z,102223.13
2023-02-02T06:44:16.111Z,102223.45
2023-02-02T06:46:46.661Z,102231.27
2023-02-02T06:49:16.761Z,102234.61
2023-02-02T06:51:49.305Z,102237.59
2023-02-02T06:54:18.934Z,102248.30
2023-02-02T06:56:48.788Z,102245.16
2023-02-02T06:59:20.249Z,102252.53
2023-02-02T07:01:52.943Z,102259.45
2023-02-02T07:04:22.895Z,102250.78
2023-02-02T07:06:52.699Z,102245.41
2023-02-02T07:09:22.477Z,102256.12
2023-02-02T07:11:52.242Z,102250.56
2023-02-02T07:14:22.088Z,102258.81
2023-02-02T07:16:51.899Z,102248.73
2023-02-02T07:19:21.731Z,102257.45
2023-02-02T07:21:51.595Z,102263.47
2023-02-02T07:24:21.193Z,102251.38
2023-02-02T07:26:50.992Z,102261.19
2023-02-02T07:29:20.947Z,102253.74
2023-02-02T07:31:50.843Z,102248.02
2023-02-02T07:34:20.719Z,102248.02
2023-02-02T07:36:50.926Z,102268.11
2023-02-02T07:39:20.726Z,102268.11
2023-02-02T07:41:50.510Z,102266.05
2023-02-02T07:44:22.263Z,102272.11
2023-02-02T07:46:52.664Z,102279.12
2023-02-02T07:49:22.875Z,102278.38
2023-02-02T07:51:52.706Z,102282.19
2023-02-02T07:54:22.359Z,102284.58
2023-02-02T07:56:52.208Z,102283.00
2023-02-02T07:59:21.983Z,102284.80
2023-02-02T08:01:52.201Z,102296.31
2023-02-02T08:04:22.112Z,102294.95
2023-02-02T08:06:52.120Z,102299.03
2023-02-02T08:09:21.963Z,102296.94
2023-02-02T08:11:51.527Z,102301.17
2023-02-02T08:14:21.243Z,102308.00
2023-02-02T08:16:51.071Z,102305.97
2023-02-02T08:19:20.886Z,102312.55
2023-02-02T08:21:50.715Z,102312.55
2023-02-02T08:24:20.211Z,102313.06
2023-02-02T08:26:50.013Z,102316.84
2023-02-02T08:29:19.847Z,102317.30
2023-02-02T08:31:49.874Z,102311.43
2023-02-02T08:34:19.737Z,102317.45
2023-02-02T08:36:49.503Z,102320.41
2023-02-02T08:39:19.743Z,102319.91
2023-02-02T08:41:49.767Z,102326.55
2023-02-02T08:44:19.522Z,102334.12
2023-02-02T08:46:49.695Z,102333.42
2023-02-02T08:49:19.626Z,102336.33
2023-02-02T08:51:49.402Z,102341.52
2023-02-02T08:54:19.193Z,102344.59
2023-02-02T08:56:48.970Z,102360.87
2023-02-02T08:59:18.786Z,102366.86
2023-02-02T09:01:48.754Z,102359.55
2023-02-02T09:04:18.666Z,102360.73
2023-02-02T09:06:48.767Z,102363.93
2023-02-02T09:09:18.735Z,102371.08
2023-02-02T09:11:48.509Z,102367.80
2023-02-02T09:14:18.097Z,102375.95
2023-02-02T09:16:47.931Z,102380.89
2023-02-02T09:19:17.930Z,102380.13
2023-02-02T09:21:49.221Z,102379.08
2023-02-02T09:24:18.967Z,102382.50
2023-02-02T09:26:49.207Z,102389.64
2023-02-02T09:29:19.069Z,102396.93
2023-02-02T09:31:49.275Z,102409.02
2023-02-02T09:34:19.062Z,102409.02
2023-02-02T09:36:49.473Z,102409.84
2023-02-02T09:39:20.642Z,102408.61
2023-02-02T09:41:56.229Z,102422.27
2023-02-02T09:44:40.265Z,102425.26
2023-02-02T09:47:28.019Z,102427.63
2023-02-02T09:50:03.365Z,102428.81
2023-02-02T09:52:45.033Z,102428.36
2023-02-02T09:55:32.710Z,102422.98
2023-02-02T09:58:22.213Z,102429.84
2023-02-02T10:01:14.661Z,102433.73
2023-02-02T10:03:47.580Z,102441.93
2023-02-02T10:06:37.717Z,102445.22
2023-02-02T10:09:28.165Z,102442.50
2023-02-02T10:12:17.474Z,102444.30
2023-02-02T10:14:58.054Z,102448.37
2023-02-02T10:17:39.725Z,102448.97
2023-02-02T10:20:29.143Z,102445.73
2023-02-02T10:23:01.938Z,102454.80
2023-02-02T10:25:33.600Z,102462.08
2023-02-02T10:28:09.231Z,102458.11
2023-02-02T10:30:47.928Z,102456.98
2023-02-02T10:33:39.053Z,102466.94
2023-02-02T10:36:24.433Z,102466.19
2023-02-02T10:39:06.007Z,102465.48
2023-02-02T10:41:44.355Z,102463.69
2023-02-02T10:44:20.068Z,102470.78
2023-02-02T10:46:52.748Z,102465.05
2023-02-02T10:49:37.952Z,102465.05
2023-02-02T10:52:15.776Z,102468.19
2023-02-02T10:54:57.045Z,102467.05
2023-02-02T10:57:41.206Z,102464.09
2023-02-02T11:00:24.937Z,102479.94
2023-02-02T11:02:56.105Z,102474.33
2023-02-02T11:05:46.045Z,102483.75
2023-02-02T11:08:21.066Z,102476.61
2023-02-02T11:10:53.924Z,102479.70
2023-02-02T11:13:35.089Z,102485.97
2023-02-02T11:16:19.221Z,102484.98
2023-02-02T11:18:49.116Z,102472.55
2023-02-02T11:21:37.455Z,102479.97
2023-02-02T11:24:33.901Z,102467.50
2023-02-02T11:27:09.432Z,102474.67
2023-02-02T11:29:50.506Z,102471.80
2023-02-02T11:32:31.006Z,102475.18
2023-02-02T11:35:06.611Z,102474.56
2023-02-02T11:37:41.964Z,102473.03
2023-02-02T11:40:26.326Z,102463.78
2023-02-02T11:42:58.313Z,102467.42
2023-02-02T11:45:39.888Z,102470.27
2023-02-02T11:48:23.976Z,102459.70
2023-02-02T11:50:56.418Z,102459.70
2023-02-02T11:53:32.568Z,102455.52
2023-02-02T11:56:11.356Z,102457.88
2023-02-02T11:58:52.120Z,102453.81
2023-02-02T12:01:30.207Z,102454.41
2023-02-02T12:04:05.800Z,102462.08
2023-02-02T12:06:38.333Z,102455.94
2023-02-02T12:09:25.306Z,102452.25
2023-02-02T12:12:09.115Z,102465.03
2023-02-02T12:15:01.322Z,102466.41
2023-02-02T12:17:45.579Z,102470.04
2023-02-02T12:20:20.952Z,102463.13
2023-02-02T12:23:21.887Z,102467.98
2023-02-02T12:25:57.482Z,102466.06
2023-02-02T12:28:44.701Z,102466.06
2023-02-02T12:31:29.451Z,102479.27
2023-02-02T12:34:17.312Z,102465.62
2023-02-02T12:37:18.715Z,102465.62
2023-02-02T12:39:55.096Z,102466.42
2023-02-02T12:42:39.615Z,102467.78
2023-02-02T12:45:36.079Z,102458.26
2023-02-02T12:48:21.019Z,102450.77
2023-02-02T12:50:54.312Z,102447.80
2023-02-02T12:53:48.174Z,102455.38
2023-02-02T12:56:31.106Z,102449.78
2023-02-02T12:59:13.899Z,102445.69
2023-02-02T13:01:52.898Z,102450.44
2023-02-02T13:04:52.354Z,102450.44
2023-02-02T13:07:53.776Z,102460.01
2023-02-02T13:10:29.108Z,102459.66
2023-02-02T13:13:16.535Z,102456.81
2023-02-02T13:15:55.012Z,102460.01
2023-02-02T13:18:28.305Z,102465.73
2023-02-02T13:21:06.912Z,102460.64
2023-02-02T13:23:39.878Z,102462.00
2023-02-02T13:26:17.465Z,102448.41
2023-02-02T13:28:56.207Z,102452.95
2023-02-02T13:31:31.904Z,102457.16
2023-02-02T13:34:07.731Z,102448.97
2023-02-02T13:36:39.048Z,102447.61
2023-02-02T13:39:17.458Z,102452.27
2023-02-02T13:41:49.712Z,102451.59
2023-02-02T13:44:28.175Z,102445.58
2023-02-02T13:47:03.630Z,102450.86
2023-02-02T13:49:36.579Z,102457.22
2023-02-02T13:52:26.981Z,102452.28
2023-02-02T13:55:08.540Z,102459.41
2023-02-02T13:57:48.579Z,102465.22
2023-02-02T14:00:24.378Z,102465.35
2023-02-02T14:02:56.588Z,102465.35
2023-02-02T14:05:38.276Z,102476.14
2023-02-02T14:08:21.486Z,102462.12
2023-02-02T14:10:57.191Z,102470.58
2023-02-02T14:14:05.670Z,102483.78
2023-02-02T14:16:38.563Z,102474.59
2023-02-02T14:19:20.212Z,102474.81
2023-02-02T14:22:01.785Z,102479.52
2023-02-02T14:24:40.150Z,102476.84
2023-02-02T14:29:56.877Z,102470.73
2023-02-02T14:32:29.584Z,102470.73
2023-02-02T14:35:11.303Z,102481.03
2023-02-02T14:37:52.758Z,102474.76
2023-02-02T14:40:37.390Z,102479.19
2023-02-02T14:43:42.855Z,102489.90
2023-02-02T14:46:18.108Z,102489.90
2023-02-02T14:48:50.515Z,102497.05
2023-02-02T14:51:22.884Z,102483.00
2023-02-02T14:54:01.068Z,102475.76
2023-02-02T14:56:45.521Z,102497.27
2023-02-02T14:59:20.021Z,102498.28
2023-02-02T15:02:04.988Z,102498.28
2023-02-02T15:04:35.244Z,102503.78
2023-02-02T15:07:24.045Z,102503.78
2023-02-02T15:09:56.616Z,102505.34
2023-02-02T15:12:46.566Z,102509.27
2023-02-02T15:15:25.349Z,102507.13
2023-02-02T15:18:19.463Z,102515.41
2023-02-02T15:20:55.403Z,102519.59
2023-02-02T15:23:45.601Z,102512.56
2023-02-02T15:26:24.845Z,102520.14
2023-02-02T15:29:09.785Z,102515.36
2023-02-02T15:31:42.735Z,102510.05
2023-02-02T15:34:33.324Z,102507.95
2023-02-02T15:37:06.233Z,102507.95
2023-02-02T15:39:48.980Z,102515.05
2023-02-02T15:42:42.250Z,102524.59
2023-02-02T15:45:40.547Z,102520.70
2023-02-02T15:48:24.752Z,102519.39
2023-02-02T15:50:55.587Z,102515.52
2023-02-02T15:53:28.556Z,102518.34
2023-02-02T15:55:58.632Z,102525.54
2023-02-02T15:58:31.884Z,102521.46
2023-02-02T16:01:07.846Z,102516.67
2023-02-02T16:03:40.962Z,102532.38
2023-02-02T16:06:12.429Z,102529.92
2023-02-02T16:08:42.616Z,102528.26
2023-02-02T16:11:18.553Z,102538.48
2023-02-02T16:14:02.911Z,102536.22
2023-02-02T16:16:35.499Z,102540.10
2023-02-02T16:19:11.045Z,102545.27
2023-02-02T16:21:55.661Z,102551.52
2023-02-02T16:24:31.556Z,102551.52
2023-02-02T16:27:03.771Z,102555.60
2023-02-02T16:29:35.517Z,102554.25
2023-02-02T16:32:06.973Z,102564.86
2023-02-02T16:34:46.725Z,102573.13
2023-02-02T16:37:20.189Z,102578.91
2023-02-02T16:39:50.436Z,102576.16
2023-02-02T16:42:31.751Z,102573.02
2023-02-02T16:45:02.079Z,102583.61
2023-02-02T16:47:34.842Z,102583.92
2023-02-02T16:50:19.968Z,102583.57
2023-02-02T16:53:02.033Z,102584.58
2023-02-02T16:55:49.526Z,102584.66
2023-02-02T16:58:07.409Z,102580.12
2023-02-02T17:00:38.589Z,102578.36
2023-02-02T17:03:12.793Z,102584.97
2023-02-02T17:05:48.090Z,102592.78
2023-02-02T17:08:26.370Z,102592.51
2023-02-02T17:11:15.599Z,102598.73
2023-02-02T17:13:45.402Z,102598.07
2023-02-02T17:16:18.251Z,102599.81
2023-02-02T17:18:48.184Z,102601.17
2023-02-02T17:21:24.478Z,102600.20
2023-02-02T17:23:54.511Z,102601.06
2023-02-02T17:26:24.147Z,102602.30
2023-02-02T17:28:57.012Z,102601.91
2023-02-02T17:31:26.694Z,102601.91
2023-02-02T17:33:56.924Z,102608.88
2023-02-02T17:36:26.388Z,102609.06
2023-02-02T17:38:56.925Z,102611.75
2023-02-02T17:41:28.144Z,102611.16
2023-02-02T17:43:57.875Z,102606.37
2023-02-02T17:46:34.879Z,102611.74
2023-02-02T17:49:04.616Z,102612.42
2023-02-02T17:51:35.983Z,102609.33
2023-02-02T17:54:15.844Z,102604.16
2023-02-02T17:56:46.820Z,102597.35
2023-02-02T17:59:16.587Z,102614.39
2023-02-02T18:01:46.501Z,102617.34
2023-02-02T18:04:16.642Z,102618.60
2023-02-02T18:06:46.408Z,102610.50
2023-02-02T18:09:16.111Z,102604.70
2023-02-02T18:11:47.512Z,102610.72
2023-02-02T18:14:17.035Z,102611.10
2023-02-02T18:16:46.858Z,102602.02
2023-02-02T18:19:16.675Z,102605.97
2023-02-02T18:21:46.438Z,102601.28
2023-02-02T18:24:16.006Z,102596.89
2023-02-02T18:26:45.842Z,102585.50
2023-02-02T18:29:15.944Z,102594.68
2023-02-02T18:31:46.782Z,102590.53
2023-02-02T18:34:16.690Z,102589.87
2023-02-02T18:36:46.436Z,102585.14
2023-02-02T18:39:16.177Z,102579.14
2023-02-02T18:41:45.939Z,102586.16
2023-02-02T18:44:15.700Z,102579.58
2023-02-02T18:46:45.496Z,102579.30
2023-02-02T18:49:15.105Z,102575.47
2023-02-02T18:51:46.231Z,102580.36
2023-02-02T18:54:15.926Z,102578.19
2023-02-02T18:56:45.809Z,102581.83
2023-02-02T18:59:15.628Z,102579.10
2023-02-02T19:01:45.814Z,102579.02
2023-02-02T19:04:15.802Z,102578.70
2023-02-02T19:07:03.017Z,102580.66
2023-02-02T19:09:32.894Z,102584.42
2023-02-02T19:12:03.541Z,102586.07
2023-02-02T19:14:37.179Z,102582.63
2023-02-02T19:17:25.551Z,102582.84
2023-02-02T19:19:55.920Z,102582.97
2023-02-02T19:22:27.715Z,102587.52
2023-02-02T19:24:59.198Z,102583.13
2023-02-02T19:27:28.939Z,102580.31
2023-02-02T19:30:01.569Z,102579.36
2023-02-02T19:32:34.731Z,102577.23
2023-02-02T19:35:08.464Z,102572.14
2023-02-02T19:37:41.600Z,102574.80
2023-02-02T19:40:26.056Z,102569.61
2023-02-02T19:42:58.987Z,102573.25
2023-02-02T19:45:31.826Z,102573.92
2023-02-02T19:48:04.119Z,102571.98
2023-02-02T19:50:36.933Z,102566.51
2023-02-02T19:53:18.200Z,102568.31
2023-02-02T19:55:50.198Z,102567.35
2023-02-02T19:58:23.043Z,102573.92
2023-02-02T20:00:55.312Z,102573.25
2023-02-02T20:03:30.619Z,102583.38
2023-02-02T20:06:01.980Z,102581.53
2023-02-02T20:08:40.282Z,102577.91
2023-02-02T20:11:37.270Z,102574.05
2023-02-02T20:14:30.284Z,102571.20
2023-02-02T20:17:05.876Z,102570.91
2023-02-02T20:19:38.301Z,102585.53
2023-02-02T20:22:20.810Z,102575.22
2023-02-02T20:24:50.613Z,102576.32
2023-02-02T20:27:23.471Z,102577.55
2023-02-02T20:29:55.654Z,102581.95
2023-02-02T20:32:31.000Z,102581.95
2023-02-02T20:35:00.832Z,102592.26
2023-02-02T20:37:35.478Z,102593.91
2023-02-02T20:40:23.852Z,102596.89
2023-02-02T20:42:54.163Z,102599.97
2023-02-02T20:45:23.785Z,102599.02
2023-02-02T20:47:53.876Z,102603.45
2023-02-02T20:50:23.979Z,102600.09
2023-02-02T20:52:55.642Z,102608.48
2023-02-02T20:55:25.060Z,102600.63
2023-02-02T20:57:54.848Z,102607.09
2023-02-02T21:00:26.301Z,102602.66
2023-02-02T21:02:56.227Z,102606.70
2023-02-02T21:05:25.727Z,102603.93
2023-02-02T21:07:55.610Z,102600.73
2023-02-02T21:10:27.386Z,102606.27
2023-02-02T21:12:57.409Z,102609.80
2023-02-02T21:15:27.267Z,102610.03
2023-02-02T21:17:56.999Z,102606.02
2023-02-02T21:20:26.786Z,102609.44
2023-02-02T21:22:56.710Z,102612.47
2023-02-02T21:25:26.319Z,102609.78
2023-02-02T21:27:59.789Z,102605.22
2023-02-02T21:30:29.934Z,102598.86
2023-02-02T21:33:00.284Z,102600.51
2023-02-02T21:35:30.276Z,102608.67
2023-02-02T21:38:03.063Z,102613.45
2023-02-02T21:40:34.578Z,102606.52
2023-02-02T21:43:07.385Z,102609.94
2023-02-02T21:45:39.363Z,102605.60
2023-02-02T21:48:22.405Z,102616.89
2023-02-02T21:50:52.538Z,102598.13
2023-02-02T21:53:25.017Z,102596.52
2023-02-02T21:56:00.063Z,102593.48
2023-02-02T21:58:40.323Z,102603.13
2023-02-02T22:01:19.229Z,102594.55
2023-02-02T22:03:50.197Z,102597.33
2023-02-02T22:06:31.751Z,102596.23
2023-02-02T22:09:04.531Z,102596.99
2023-02-02T22:11:55.187Z,102589.20
2023-02-02T22:14:42.056Z,102596.20
2023-02-02T22:17:29.478Z,102603.13
2023-02-02T22:20:05.683Z,102590.69
2023-02-02T22:22:37.647Z,102590.75
2023-02-02T22:25:22.514Z,102583.50
2023-02-02T22:27:55.257Z,102585.59
2023-02-02T22:30:39.357Z,102577.27
2023-02-02T22:33:11.538Z,102579.48
2023-02-02T22:35:42.725Z,102592.36
2023-02-02T22:38:18.088Z,102592.50
2023-02-02T22:40:49.294Z,102579.97
2023-02-02T22:43:19.946Z,102579.97
2023-02-02T22:45:49.905Z,102593.31
2023-02-02T22:48:19.962Z,102589.29
2023-02-02T22:50:49.806Z,102585.56
2023-02-02T22:53:19.835Z,102586.01
2023-02-02T22:55:51.059Z,102592.25
2023-02-02T22:58:20.801Z,102598.58
2023-02-02T23:00:50.701Z,102594.49
2023-02-02T23:03:20.858Z,102595.28
2023-02-02T23:05:50.614Z,102584.77
2023-02-02T23:08:20.456Z,102575.00
2023-02-02T23:10:50.544Z,102566.73
2023-02-02T23:13:20.538Z,102557.13
2023-02-02T23:15:50.324Z,102559.48
2023-02-02T23:18:20.021Z,102544.48
2023-02-02T23:20:50.437Z,102544.48
2023-02-02T23:23:22.238Z,102529.63
2023-02-02T23:25:52.064Z,102518.75
2023-02-02T23:28:21.610Z,102518.75
2023-02-02T23:30:53.389Z,102514.57
2023-02-02T23:33:23.237Z,102509.83
2023-02-02T23:35:53.181Z,102512.47
2023-02-02T23:38:22.597Z,102509.22
2023-02-02T23:40:52.436Z,102514.23
2023-02-02T23:43:22.194Z,102510.98
2023-02-02T23:45:52.322Z,102509.14
2023-02-02T23:48:22.322Z,102513.81
2023-02-02T23:50:52.335Z,102523.92
2023-02-02T23:53:22.617Z,102491.42
2023-02-02T23:55:52.415Z,102514.56
2023-02-02T23:58:22.206Z,102510.82
